Time;durP1;ratioP1;P1;durP2;ratioP2;P2;SDS_P1;SDS_P2;PMS_P1;PMS_P2;Temp;Humidity;BMP_temperature;BMP_pressure;BME280_temperature;BME280_humidity;BME280_pressure;Samples;Min_cycle;Max_cycle;Signal;HPM_P1;HPM_P2
2022/09/26 00:01:46;;;;;;;6.35;4.15;;;;;;;;;;6191543;28;20042;-83
2022/09/26 00:04:49;;;;;;;6.57;3.65;;;;;;;;;;6174781;28;20050;-83
2022/09/26 00:07:50;;;;;;;7.55;4.53;;;;;;;;;;6176732;28;20106;-83
2022/09/26 00:10:57;;;;;;;15.15;5.00;;;;;;;;;;6173417;28;20526;-84
2022/09/26 00:14:04;;;;;;;8.80;4.38;;;;;;;;;;6175424;28;20054;-83
2022/09/26 00:17:06;;;;;;;36.40;5.20;;;;;;;;;;6172259;28;20058;-83
2022/09/26 00:20:08;;;;;;;5.82;3.60;;;;;;;;;;6174753;28;20042;-83
2022/09/26 00:23:10;;;;;;;4.82;3.75;;;;;;;;;;6188891;28;20054;-83
2022/09/26 00:26:13;;;;;;;5.95;3.30;;;;;;;;;;6170277;28;20050;-83
2022/09/26 00:29:15;;;;;;;11.25;3.88;;;;;;;;;;6175653;28;20049;-83
2022/09/26 00:32:17;;;;;;;6.35;3.50;;;;;;;;;;6172806;28;20121;-83
2022/09/26 00:35:19;;;;;;;7.20;3.65;;;;;;;;;;6172800;28;20061;-82
2022/09/26 00:38:21;;;;;;;8.93;3.70;;;;;;;;;;6192579;28;20053;-83
2022/09/26 00:41:23;;;;;;;27.33;4.68;;;;;;;;;;6179793;28;20105;-83
2022/09/26 00:44:48;;;;;;;3.97;3.25;;;;;;;;;;6178130;28;20062;-83
2022/09/26 00:47:58;;;;;;;9.07;4.32;;;;;;;;;;6160224;28;20081;-83
2022/09/26 00:51:00;;;;;;;10.30;4.43;;;;;;;;;;6195167;28;20128;-83
2022/09/26 00:54:02;;;;;;;12.27;4.20;;;;;;;;;;6196376;28;20050;-83
2022/09/26 00:57:07;;;;;;;;;;;;;;;;;;6195520;28;20050;-84
2022/09/26 01:00:09;;;;;;;;;;;;;;;;;;6159460;28;19929;-83
2022/09/26 01:03:11;;;;;;;20.42;3.70;;;;;;;;;;6174544;28;20713;-83
2022/09/26 01:06:15;;;;;;;11.50;3.83;;;;;;;;;;6197080;28;20054;-83
2022/09/26 01:09:17;;;;;;;;;;;;;;;;;;6176919;28;20793;-83
2022/09/26 01:12:20;;;;;;;6.30;3.45;;;;;;;;;;6172227;28;19969;-83
2022/09/26 01:15:22;;;;;;;8.75;3.63;;;;;;;;;;6177703;28;20050;-83
2022/09/26 01:18:23;;;;;;;11.65;3.83;;;;;;;;;;6174471;28;20517;-83
2022/09/26 01:22:01;;;;;;;20.63;4.10;;;;;;;;;;6183865;28;20717;-83
2022/09/26 01:25:27;;;;;;;17.95;4.13;;;;;;;;;;6163110;28;20042;-83
2022/09/26 01:29:26;;;;;;;6.55;3.78;;;;;;;;;;6184918;28;20054;-83
2022/09/26 01:32:56;;;;;;;10.23;3.88;;;;;;;;;;6098487;29;20195;-83
2022/09/26 01:36:08;;;;;;;10.05;3.55;;;;;;;;;;6114202;28;20050;-83
2022/09/26 01:39:32;;;;;;;14.52;3.70;;;;;;;;;;6166396;28;20049;-83
2022/09/26 01:42:48;;;;;;;10.75;3.65;;;;;;;;;;6169566;28;20053;-82
2022/09/26 01:46:18;;;;;;;8.60;3.60;;;;;;;;;;6183800;28;20098;-82
2022/09/26 01:49:30;;;;;;;34.50;4.20;;;;;;;;;;6172401;28;20524;-82
2022/09/26 01:52:52;;;;;;;4.70;3.63;;;;;;;;;;6178507;28;21069;-83
2022/09/26 01:56:00;;;;;;;12.32;3.13;;;;;;;;;;6171618;28;20058;-82
2022/09/26 01:59:38;;;;;;;7.10;3.60;;;;;;;;;;6161924;28;20103;-82
2022/09/26 02:02:43;;;;;;;10.10;3.67;;;;;;;;;;6170394;28;20054;-82
2022/09/26 02:05:49;;;;;;;9.82;3.40;;;;;;;;;;6160074;28;20062;-82
2022/09/26 02:09:05;;;;;;;4.47;2.95;;;;;;;;;;6173951;28;20042;-82
2022/09/26 02:12:13;;;;;;;5.50;3.70;;;;;;;;;;6191544;28;20042;-83
2022/09/26 02:15:18;;;;;;;5.53;4.05;;;;;;;;;;6172379;28;20093;-83
2022/09/26 02:18:31;;;;;;;5.50;3.58;;;;;;;;;;6160111;28;20046;-83
2022/09/26 02:21:33;;;;;;;10.48;3.28;;;;;;;;;;6188482;28;20109;-82
2022/09/26 02:24:34;;;;;;;7.80;3.28;;;;;;;;;;6173298;28;20186;-83
2022/09/26 02:27:37;;;;;;;7.90;3.92;;;;;;;;;;6173166;28;20042;-82
2022/09/26 02:30:44;;;;;;;8.23;3.10;;;;;;;;;;6173456;28;20552;-82
2022/09/26 02:33:49;;;;;;;13.45;3.70;;;;;;;;;;6186086;28;20132;-83
2022/09/26 02:36:53;;;;;;;8.85;3.95;;;;;;;;;;6174048;28;20077;-83
2022/09/26 02:39:57;;;;;;;7.70;3.40;;;;;;;;;;6170497;28;20233;-83
2022/09/26 02:43:31;;;;;;;4.43;3.35;;;;;;;;;;6155104;28;22608;-84
2022/09/26 02:46:37;;;;;;;8.60;3.28;;;;;;;;;;6172279;28;20061;-83
2022/09/26 02:50:00;;;;;;;4.57;3.22;;;;;;;;;;6155700;28;20072;-83
2022/09/26 02:53:11;;;;;;;5.22;3.30;;;;;;;;;;6169796;28;20110;-83
2022/09/26 02:56:49;;;;;;;4.07;3.10;;;;;;;;;;6174300;28;20053;-83
2022/09/26 03:00:05;;;;;;;4.40;3.20;;;;;;;;;;6165953;28;20047;-83
2022/09/26 03:03:27;;;;;;;5.32;3.40;;;;;;;;;;6175180;28;20798;-83
2022/09/26 03:06:35;;;;;;;4.07;3.17;;;;;;;;;;6156023;28;20140;-83
2022/09/26 03:09:40;;;;;;;4.50;3.17;;;;;;;;;;6171386;28;20116;-83
2022/09/26 03:12:43;;;;;;;5.85;3.47;;;;;;;;;;6174354;28;20117;-83
2022/09/26 03:15:50;;;;;;;;;;;;;;;;;;6170066;28;20046;-83
2022/09/26 03:18:59;;;;;;;5.78;3.47;;;;;;;;;;6158320;28;19921;-83
2022/09/26 03:22:01;;;;;;;51.85;5.97;;;;;;;;;;6176916;28;20046;-83
2022/09/26 03:25:05;;;;;;;6.85;4.07;;;;;;;;;;6157927;28;20034;-83
2022/09/26 03:28:09;;;;;;;6.15;3.67;;;;;;;;;;6164841;28;20039;-83
2022/09/26 03:31:10;;;;;;;5.65;3.70;;;;;;;;;;6154666;28;20046;-83
2022/09/26 03:34:22;;;;;;;5.78;3.75;;;;;;;;;;6163346;28;20054;-83
2022/09/26 03:37:25;;;;;;;4.55;3.40;;;;;;;;;;6170424;28;20053;-82
2022/09/26 03:40:27;;;;;;;4.85;3.22;;;;;;;;;;6182253;28;20050;-83
2022/09/26 03:43:48;;;;;;;5.57;3.45;;;;;;;;;;6166206;28;20054;-83
2022/09/26 03:46:51;;;;;;;6.35;3.13;;;;;;;;;;6139488;28;20054;-83
2022/09/26 03:49:52;;;;;;;4.75;3.70;;;;;;;;;;6151865;28;20038;-83
2022/09/26 03:52:55;;;;;;;5.47;4.10;;;;;;;;;;6152501;28;20046;-83
2022/09/26 03:56:15;;;;;;;4.45;3.45;;;;;;;;;;6167650;28;20124;-83
2022/09/26 03:59:16;;;;;;;5.50;3.75;;;;;;;;;;6170372;28;20042;-83
2022/09/26 04:02:21;;;;;;;4.28;3.35;;;;;;;;;;6165147;28;20104;-83
2022/09/26 04:05:42;;;;;;;4.90;3.30;;;;;;;;;;6180905;28;20086;-83
2022/09/26 04:08:47;;;;;;;4.35;3.03;;;;;;;;;;6153255;28;20054;-83
2022/09/26 04:11:49;;;;;;;7.25;3.70;;;;;;;;;;6174387;28;20061;-83
2022/09/26 04:14:51;;;;;;;5.07;3.45;;;;;;;;;;6172065;28;20496;-83
2022/09/26 04:17:53;;;;;;;4.18;3.38;;;;;;;;;;6172171;28;20038;-82
2022/09/26 04:21:02;;;;;;;6.88;4.00;;;;;;;;;;6171034;28;20050;-83
2022/09/26 04:24:15;;;;;;;5.95;3.60;;;;;;;;;;6152344;28;20053;-83
2022/09/26 04:27:17;;;;;;;4.00;3.03;;;;;;;;;;6171805;28;20117;-83
2022/09/26 04:30:20;;;;;;;5.25;3.20;;;;;;;;;;6149561;28;20082;-83
2022/09/26 04:33:28;;;;;;;4.60;3.03;;;;;;;;;;6166773;28;20053;-83
2022/09/26 04:36:41;;;;;;;6.15;3.10;;;;;;;;;;6169966;28;20050;-83
2022/09/26 04:39:43;;;;;;;10.13;6.03;;;;;;;;;;6167450;28;20536;-83
2022/09/26 04:42:44;;;;;;;7.80;5.15;;;;;;;;;;6183601;28;20640;-83
2022/09/26 04:45:46;;;;;;;9.10;5.30;;;;;;;;;;6151749;28;20120;-83
2022/09/26 04:48:52;;;;;;;5.43;3.90;;;;;;;;;;6153236;28;20042;-83
2022/09/26 04:51:55;;;;;;;4.93;4.25;;;;;;;;;;6165765;28;20057;-83
2022/09/26 04:54:57;;;;;;;5.20;3.73;;;;;;;;;;6150079;28;20042;-82
2022/09/26 04:58:01;;;;;;;4.72;4.00;;;;;;;;;;6170216;28;20057;-83
2022/09/26 05:01:08;;;;;;;4.22;3.58;;;;;;;;;;6161546;28;20190;-83
2022/09/26 05:04:24;;;;;;;7.22;4.50;;;;;;;;;;6194861;28;20110;-82
2022/09/26 05:07:30;;;;;;;4.57;3.70;;;;;;;;;;6192136;28;20053;-83
2022/09/26 05:10:32;;;;;;;3.75;3.40;;;;;;;;;;6149496;28;20478;-83
2022/09/26 05:13:37;;;;;;;4.97;3.63;;;;;;;;;;6168004;28;20038;-83
2022/09/26 05:16:39;;;;;;;5.50;3.63;;;;;;;;;;6175380;28;20104;-83
2022/09/26 05:19:45;;;;;;;6.18;4.05;;;;;;;;;;6165787;28;20050;-84
2022/09/26 05:23:06;;;;;;;6.70;3.72;;;;;;;;;;6182432;28;20050;-84
2022/09/26 05:26:20;;;;;;;;;;;;;;;;;;6205495;28;20112;-84
2022/09/26 05:29:22;;;;;;;;;;;;;;;;;;6197247;28;19924;-83
2022/09/26 05:32:34;;;;;;;6.25;3.97;;;;;;;;;;6199619;28;20032;-84
2022/09/26 05:35:41;;;;;;;5.60;4.18;;;;;;;;;;6197503;28;20110;-84
2022/09/26 05:38:44;;;;;;;5.80;4.40;;;;;;;;;;6183042;28;20085;-85
2022/09/26 05:41:46;;;;;;;6.90;5.15;;;;;;;;;;6196740;28;20077;-85
2022/09/26 05:44:48;;;;;;;8.75;5.70;;;;;;;;;;6169736;28;20057;-85
2022/09/26 05:47:49;;;;;;;5.68;4.35;;;;;;;;;;6171549;28;20042;-84
2022/09/26 05:50:51;;;;;;;6.30;4.72;;;;;;;;;;6175212;28;20062;-84
2022/09/26 05:53:54;;;;;;;7.22;5.00;;;;;;;;;;6154986;28;20050;-83
2022/09/26 05:56:59;;;;;;;28.38;12.02;;;;;;;;;;6154385;28;20065;-84
2022/09/26 06:00:01;;;;;;;10.82;5.72;;;;;;;;;;6168631;28;20058;-84
2022/09/26 06:03:21;;;;;;;8.90;6.38;;;;;;;;;;6168932;28;20487;-84
2022/09/26 06:06:38;;;;;;;10.95;8.73;;;;;;;;;;6166752;28;20077;-84
2022/09/26 06:09:45;;;;;;;10.60;7.97;;;;;;;;;;6150162;28;20413;-84
2022/09/26 06:13:14;;;;;;;9.02;6.97;;;;;;;;;;6155265;28;20053;-85
2022/09/26 06:16:22;;;;;;;8.70;6.35;;;;;;;;;;6161319;28;20047;-85
2022/09/26 06:19:24;;;;;;;7.80;5.63;;;;;;;;;;6161980;28;20528;-85
2022/09/26 06:22:26;;;;;;;15.32;9.38;;;;;;;;;;6148676;28;20050;-85
2022/09/26 06:25:28;;;;;;;11.70;6.97;;;;;;;;;;6148605;28;20447;-85
2022/09/26 06:28:34;;;;;;;9.10;6.93;;;;;;;;;;6150409;28;20070;-85
2022/09/26 06:31:36;;;;;;;12.43;8.40;;;;;;;;;;6146592;28;20128;-84
2022/09/26 06:34:44;;;;;;;9.40;8.02;;;;;;;;;;6168566;28;20046;-84
2022/09/26 06:38:18;;;;;;;8.48;6.13;;;;;;;;;;6161169;28;20077;-85
2022/09/26 06:41:19;;;;;;;9.13;5.85;;;;;;;;;;6163444;28;20062;-84
2022/09/26 06:44:22;;;;;;;10.18;6.32;;;;;;;;;;6167743;28;20064;-84
2022/09/26 06:47:42;;;;;;;11.45;5.65;;;;;;;;;;6183138;28;20057;-84
2022/09/26 06:51:00;;;;;;;12.57;6.13;;;;;;;;;;6153410;28;20050;-83
2022/09/26 06:54:03;;;;;;;;;;;;;;;;;;6168267;28;20060;-84
2022/09/26 06:57:05;;;;;;;12.63;6.50;;;;;;;;;;6151763;28;19925;-84
2022/09/26 07:00:09;;;;;;;;;;;;;;;;;;6152038;28;20054;-83
2022/09/26 07:03:31;;;;;;;8.70;5.50;;;;;;;;;;6169329;28;19945;-84
2022/09/26 07:06:58;;;;;;;9.68;5.60;;;;;;;;;;6156140;28;20228;-83
2022/09/26 07:10:00;;;;;;;13.88;6.25;;;;;;;;;;6179437;28;20043;-86
2022/09/26 07:13:15;;;;;;;10.57;5.82;;;;;;;;;;6166796;28;20057;-85
2022/09/26 07:16:17;;;;;;;11.30;5.85;;;;;;;;;;6164592;28;20047;-83
2022/09/26 07:19:32;;;;;;;10.18;5.80;;;;;;;;;;6170105;28;20053;-83
2022/09/26 07:22:42;;;;;;;8.38;5.22;;;;;;;;;;6167333;28;20046;-83
2022/09/26 07:25:46;;;;;;;8.45;5.40;;;;;;;;;;6166974;28;20054;-83
2022/09/26 07:28:48;;;;;;;11.43;5.53;;;;;;;;;;6187434;28;20041;-83
2022/09/26 07:31:58;;;;;;;10.52;4.85;;;;;;;;;;6164297;28;20521;-83
2022/09/26 07:35:23;;;;;;;10.27;4.97;;;;;;;;;;6160029;28;20053;-84
2022/09/26 07:38:25;;;;;;;11.00;5.32;;;;;;;;;;6159994;28;20539;-84
2022/09/26 07:41:29;;;;;;;5.68;4.55;;;;;;;;;;6164799;28;20053;-84
2022/09/26 07:44:32;;;;;;;10.35;4.50;;;;;;;;;;6177476;28;20536;-84
2022/09/26 07:51:46;;;;;;;8.18;4.20;;;;;;;;;;6182881;28;20050;-85
2022/09/26 07:54:53;;;;;;;8.50;3.85;;;;;;;;;;6165517;28;20085;-84
2022/09/26 07:58:31;;;;;;;6.72;3.90;;;;;;;;;;6095915;28;20139;-84
2022/09/26 08:01:44;;;;;;;4.90;4.00;;;;;;;;;;6158127;28;20093;-84
2022/09/26 08:05:11;;;;;;;6.32;4.22;;;;;;;;;;6157275;28;20316;-85
2022/09/26 08:08:13;;;;;;;6.78;3.70;;;;;;;;;;6157157;28;20053;-85
2022/09/26 08:11:36;;;;;;;4.57;3.50;;;;;;;;;;6156914;28;20831;-85
2022/09/26 08:14:54;;;;;;;4.05;3.10;;;;;;;;;;6127544;28;20803;-85
2022/09/26 08:18:05;;;;;;;4.20;3.15;;;;;;;;;;6158686;28;20145;-84
2022/09/26 08:21:07;;;;;;;6.55;2.78;;;;;;;;;;6170780;28;20555;-86
2022/09/26 08:24:09;;;;;;;5.47;2.80;;;;;;;;;;6126278;28;20053;-85
2022/09/26 08:27:23;;;;;;;4.50;2.80;;;;;;;;;;6161387;28;20043;-86
2022/09/26 08:30:26;;;;;;;4.60;2.38;;;;;;;;;;6163474;28;20283;-88
2022/09/26 08:33:28;;;;;;;3.05;2.50;;;;;;;;;;6180663;28;20053;-84
2022/09/26 08:36:31;;;;;;;4.50;2.50;;;;;;;;;;6163995;28;20049;-86
2022/09/26 08:39:39;;;;;;;3.75;2.40;;;;;;;;;;6179731;28;20066;-85
2022/09/26 08:43:28;;;;;;;4.93;1.98;;;;;;;;;;6131624;28;20123;-85
2022/09/26 08:47:00;;;;;;;2.20;2.00;;;;;;;;;;6149407;28;20038;-85
2022/09/26 08:50:38;;;;;;;2.33;1.63;;;;;;;;;;6161573;28;20062;-84
2022/09/26 08:53:49;;;;;;;1.65;1.40;;;;;;;;;;6193222;28;20042;-83
2022/09/26 08:56:55;;;;;;;4.03;1.85;;;;;;;;;;6171857;28;20102;-84
2022/09/26 09:00:07;;;;;;;3.72;1.70;;;;;;;;;;6185845;28;20090;-84
2022/09/26 09:03:26;;;;;;;5.43;1.73;;;;;;;;;;6172284;28;20042;-84
2022/09/26 09:06:29;;;;;;;1.98;1.65;;;;;;;;;;6185341;28;20578;-84
2022/09/26 09:09:31;;;;;;;3.63;1.67;;;;;;;;;;6158386;28;20046;-84
2022/09/26 09:13:06;;;;;;;2.50;1.92;;;;;;;;;;6177411;28;20053;-86
2022/09/26 09:16:30;;;;;;;3.55;1.90;;;;;;;;;;6170971;28;20066;-85
2022/09/26 09:20:20;;;;;;;3.58;1.40;;;;;;;;;;6187310;28;20050;-86
2022/09/26 09:23:56;;;;;;;2.83;1.48;;;;;;;;;;6167710;28;20057;-87
2022/09/26 09:27:14;;;;;;;3.22;1.42;;;;;;;;;;6162598;28;20050;-86
2022/09/26 09:30:40;;;;;;;5.90;1.52;;;;;;;;;;6168361;28;20528;-87
2022/09/26 09:34:13;;;;;;;3.35;1.48;;;;;;;;;;6172281;28;20494;-88
2022/09/26 09:37:42;;;;;;;2.72;1.27;;;;;;;;;;6173521;28;20062;-87
2022/09/26 09:41:13;;;;;;;1.67;1.20;;;;;;;;;;6141278;28;20133;-86
2022/09/26 09:44:30;;;;;;;3.33;1.55;;;;;;;;;;6152839;28;20697;-87
2022/09/26 09:47:37;;;;;;;4.13;1.35;;;;;;;;;;6168982;28;20506;-86
2022/09/26 09:51:16;;;;;;;2.30;1.30;;;;;;;;;;6148540;28;20047;-88
2022/09/26 09:54:27;;;;;;;2.95;1.40;;;;;;;;;;6136484;28;20060;-89
2022/09/26 09:57:56;;;;;;;2.58;1.42;;;;;;;;;;6150245;28;20052;-88
2022/09/26 10:01:13;;;;;;;4.60;1.58;;;;;;;;;;6173397;28;20042;-87
2022/09/26 10:04:22;;;;;;;2.38;1.33;;;;;;;;;;6153005;28;20057;-87
2022/09/26 10:07:23;;;;;;;2.10;1.40;;;;;;;;;;6176993;28;20053;-85
2022/09/26 10:11:07;;;;;;;2.78;1.50;;;;;;;;;;6166540;28;20046;-87
2022/09/26 10:15:05;;;;;;;1.20;1.08;;;;;;;;;;6138742;28;20653;-87
2022/09/26 10:18:26;;;;;;;1.70;1.50;;;;;;;;;;6176520;28;20531;-86
2022/09/26 10:21:40;;;;;;;2.50;1.23;;;;;;;;;;6162852;28;20058;-85
2022/09/26 10:24:45;;;;;;;2.35;1.10;;;;;;;;;;6149522;28;20559;-84
2022/09/26 10:27:57;;;;;;;3.30;1.38;;;;;;;;;;6161069;28;20038;-84
2022/09/26 10:31:07;;;;;;;3.10;1.20;;;;;;;;;;6160396;28;20051;-85
2022/09/26 10:34:26;;;;;;;5.38;1.70;;;;;;;;;;6166479;28;20073;-85
2022/09/26 10:37:29;;;;;;;3.67;1.30;;;;;;;;;;6161760;28;20042;-85
2022/09/26 10:40:53;;;;;;;1.65;1.35;;;;;;;;;;6164002;28;20513;-85
2022/09/26 10:43:58;;;;;;;6.60;1.55;;;;;;;;;;6164429;28;20062;-83
2022/09/26 10:47:39;;;;;;;1.98;1.20;;;;;;;;;;6063193;29;20083;-85
2022/09/26 10:51:00;;;;;;;2.00;1.40;;;;;;;;;;6070087;28;20048;-84
2022/09/26 10:54:21;;;;;;;3.60;1.52;;;;;;;;;;6145694;28;20156;-83
2022/09/26 10:57:36;;;;;;;2.08;1.38;;;;;;;;;;6164510;28;20409;-82
2022/09/26 11:00:42;;;;;;;4.22;1.63;;;;;;;;;;6164115;28;20084;-86
2022/09/26 11:03:56;;;;;;;5.05;1.58;;;;;;;;;;6176783;28;20046;-85
2022/09/26 11:06:57;;;;;;;3.67;1.40;;;;;;;;;;6190464;28;20050;-86
2022/09/26 11:10:15;;;;;;;2.83;1.38;;;;;;;;;;6167232;28;20042;-86
2022/09/26 11:13:28;;;;;;;3.00;1.60;;;;;;;;;;6156629;28;20046;-86
2022/09/26 11:16:50;;;;;;;2.60;1.30;;;;;;;;;;6169708;28;20046;-85
2022/09/26 11:20:03;;;;;;;7.57;1.98;;;;;;;;;;6155170;28;20046;-86
2022/09/26 11:23:19;;;;;;;2.80;1.50;;;;;;;;;;6159855;28;20058;-87
2022/09/26 11:26:37;;;;;;;2.90;1.60;;;;;;;;;;6161183;28;20070;-86
2022/09/26 11:29:51;;;;;;;2.22;1.60;;;;;;;;;;6151773;28;20046;-86
2022/09/26 11:32:59;;;;;;;4.10;1.90;;;;;;;;;;6162929;28;20806;-87
2022/09/26 11:36:40;;;;;;;3.97;1.67;;;;;;;;;;6160170;28;20063;-86
2022/09/26 11:40:03;;;;;;;4.60;1.80;;;;;;;;;;6158317;28;20050;-86
2022/09/26 11:43:37;;;;;;;4.18;2.35;;;;;;;;;;6177552;28;20108;-87
2022/09/26 11:47:04;;;;;;;2.92;1.90;;;;;;;;;;6160477;28;20192;-85
2022/09/26 11:50:41;;;;;;;2.75;2.00;;;;;;;;;;6135605;28;20042;-85
2022/09/26 11:54:05;;;;;;;3.47;2.42;;;;;;;;;;6161687;28;20050;-84
2022/09/26 11:57:36;;;;;;;3.35;2.05;;;;;;;;;;6180300;28;20437;-85
2022/09/26 12:00:49;;;;;;;2.95;1.88;;;;;;;;;;6171930;28;20055;-84
2022/09/26 12:04:06;;;;;;;3.55;2.00;;;;;;;;;;6164229;28;20050;-85
2022/09/26 12:07:16;;;;;;;3.60;1.83;;;;;;;;;;6162849;28;20055;-84
2022/09/26 12:10:45;;;;;;;3.97;2.28;;;;;;;;;;6173719;28;20054;-85
2022/09/26 12:13:51;;;;;;;4.55;2.28;;;;;;;;;;6179159;28;20038;-84
2022/09/26 12:17:20;;;;;;;4.22;2.47;;;;;;;;;;6164699;28;20049;-85
2022/09/26 12:20:45;;;;;;;2.78;2.15;;;;;;;;;;6163243;28;20677;-84
2022/09/26 12:23:56;;;;;;;13.38;10.80;;;;;;;;;;6160482;28;20737;-84
2022/09/26 12:27:29;;;;;;;4.75;2.60;;;;;;;;;;6177497;28;20058;-84
2022/09/26 12:30:39;;;;;;;4.55;3.20;;;;;;;;;;6164123;28;20141;-84
2022/09/26 12:34:06;;;;;;;3.88;2.25;;;;;;;;;;6166492;28;20056;-83
2022/09/26 12:37:30;;;;;;;4.30;2.53;;;;;;;;;;6151965;28;20035;-84
2022/09/26 12:40:44;;;;;;;2.78;2.50;;;;;;;;;;6181058;28;20424;-83
2022/09/26 12:44:13;;;;;;;3.53;2.42;;;;;;;;;;6167461;28;20038;-83
2022/09/26 12:47:37;;;;;;;4.07;2.78;;;;;;;;;;6170126;28;20038;-83
2022/09/26 12:50:45;;;;;;;;;;;;;;;;;;6186556;28;20060;-84
2022/09/26 12:53:46;;;;;;;5.53;2.72;;;;;;;;;;6184002;28;19960;-84
2022/09/26 12:56:55;;;;;;;3.03;1.90;;;;;;;;;;6172476;28;20046;-83
2022/09/26 13:00:17;;;;;;;3.03;2.05;;;;;;;;;;6182105;28;20043;-84
2022/09/26 13:03:53;;;;;;;3.88;1.83;;;;;;;;;;6183045;28;20066;-84
2022/09/26 13:07:32;;;;;;;4.13;1.70;;;;;;;;;;6172675;28;20050;-84
2022/09/26 13:10:52;;;;;;;6.55;3.22;;;;;;;;;;6183284;28;20081;-84
2022/09/26 13:14:41;;;;;;;6.65;3.70;;;;;;;;;;6172053;28;20532;-83
2022/09/26 13:17:47;;;;;;;3.30;2.70;;;;;;;;;;6166321;28;20054;-84
2022/09/26 13:20:59;;;;;;;3.75;3.45;;;;;;;;;;6165314;28;20509;-84
2022/09/26 13:24:12;;;;;;;4.97;2.17;;;;;;;;;;6167309;28;20070;-83
2022/09/26 13:27:27;;;;;;;2.13;1.73;;;;;;;;;;6172298;28;20066;-84
2022/09/26 13:30:34;;;;;;;4.43;2.10;;;;;;;;;;6187253;28;20078;-84
2022/09/26 13:33:43;;;;;;;2.22;1.60;;;;;;;;;;6165704;28;20131;-83
2022/09/26 13:36:45;;;;;;;6.53;2.10;;;;;;;;;;6180583;28;20096;-83
2022/09/26 13:40:01;;;;;;;5.13;3.70;;;;;;;;;;6168942;28;20046;-83
2022/09/26 13:43:24;;;;;;;3.75;1.80;;;;;;;;;;6173481;28;20046;-83
2022/09/26 13:46:40;;;;;;;5.00;2.70;;;;;;;;;;6184768;28;20126;-84
2022/09/26 13:49:54;;;;;;;2.65;1.90;;;;;;;;;;6151854;28;20054;-84
2022/09/26 13:52:56;;;;;;;;;;;;;;;;;;6159942;28;20042;-84
2022/09/26 13:56:34;;;;;;;3.42;1.90;;;;;;;;;;6188956;28;19976;-84
2022/09/26 13:59:50;;;;;;;4.07;1.50;;;;;;;;;;6163211;28;20453;-84
2022/09/26 14:03:17;;;;;;;3.03;1.90;;;;;;;;;;6168315;28;20056;-83
2022/09/26 14:06:27;;;;;;;2.78;1.55;;;;;;;;;;6169610;28;20043;-83
2022/09/26 14:09:41;;;;;;;4.35;1.65;;;;;;;;;;6168706;28;20266;-84
2022/09/26 14:13:04;;;;;;;1.88;1.50;;;;;;;;;;6167876;28;20049;-84
2022/09/26 14:16:29;;;;;;;3.33;1.83;;;;;;;;;;6159077;28;20050;-83
2022/09/26 14:19:41;;;;;;;13.95;10.90;;;;;;;;;;6153889;28;20167;-84
2022/09/26 14:22:51;;;;;;;4.30;3.22;;;;;;;;;;6167111;28;20184;-84
2022/09/26 14:26:03;;;;;;;3.55;2.17;;;;;;;;;;6185449;28;20038;-84
2022/09/26 14:29:29;;;;;;;6.18;2.63;;;;;;;;;;6166467;28;20058;-84
2022/09/26 14:32:42;;;;;;;2.42;2.20;;;;;;;;;;6169933;28;20433;-84
2022/09/26 14:35:44;;;;;;;3.38;1.15;;;;;;;;;;6179043;28;20050;-84
2022/09/26 14:38:47;;;;;;;2.80;1.30;;;;;;;;;;6187209;28;21892;-84
2022/09/26 14:41:49;;;;;;;2.08;1.13;;;;;;;;;;6163996;28;20049;-84
2022/09/26 14:44:56;;;;;;;2.13;1.20;;;;;;;;;;6189584;28;20042;-84
2022/09/26 14:48:10;;;;;;;2.03;1.52;;;;;;;;;;6157098;28;20106;-84
2022/09/26 14:51:14;;;;;;;17.25;6.25;;;;;;;;;;6169036;28;20055;-84
2022/09/26 14:54:30;;;;;;;3.63;1.88;;;;;;;;;;6161358;28;20108;-84
2022/09/26 14:57:33;;;;;;;7.57;3.63;;;;;;;;;;6172844;28;20050;-84
2022/09/26 15:00:39;;;;;;;12.73;5.38;;;;;;;;;;6181996;28;20045;-85
2022/09/26 15:03:58;;;;;;;5.15;2.03;;;;;;;;;;6158399;28;20057;-84
2022/09/26 15:07:03;;;;;;;8.23;4.10;;;;;;;;;;6174621;28;20113;-84
2022/09/26 15:10:10;;;;;;;7.88;4.78;;;;;;;;;;6174094;28;20053;-83
2022/09/26 15:13:15;;;;;;;5.82;2.85;;;;;;;;;;6185686;28;20053;-84
2022/09/26 15:16:39;;;;;;;8.20;3.58;;;;;;;;;;6167666;28;20043;-84
2022/09/26 15:19:48;;;;;;;4.67;2.07;;;;;;;;;;6173057;28;20043;-84
2022/09/26 15:22:52;;;;;;;6.53;3.17;;;;;;;;;;6178096;28;20129;-85
2022/09/26 15:25:57;;;;;;;4.00;2.28;;;;;;;;;;6173381;28;20042;-85
2022/09/26 15:29:00;;;;;;;3.28;2.03;;;;;;;;;;6179724;28;20172;-84
2022/09/26 15:32:05;;;;;;;7.68;3.63;;;;;;;;;;6192030;28;20050;-84
2022/09/26 15:35:11;;;;;;;2.70;1.20;;;;;;;;;;6159423;28;20066;-83
2022/09/26 15:38:12;;;;;;;4.97;2.10;;;;;;;;;;6190336;28;20068;-84
2022/09/26 15:42:56;;;;;;;7.97;3.85;;;;;;;;;;6185476;28;20049;-83
2022/09/26 15:44:49;;;;;;;3.00;1.83;;;;;;;;;;6172247;28;20081;-84
2022/09/26 15:47:52;;;;;;;3.22;2.72;;;;;;;;;;6160308;28;20157;-84
2022/09/26 15:50:57;;;;;;;3.40;1.20;;;;;;;;;;6179948;28;20046;-84
2022/09/26 15:54:06;;;;;;;3.15;0.80;;;;;;;;;;6169780;28;20046;-83
2022/09/26 15:57:09;;;;;;;1.77;1.00;;;;;;;;;;6145072;28;20394;-84
2022/09/26 16:00:14;;;;;;;4.35;1.33;;;;;;;;;;6174211;28;20050;-84
2022/09/26 16:03:30;;;;;;;1.75;1.10;;;;;;;;;;6170852;28;20057;-83
2022/09/26 16:06:52;;;;;;;1.30;1.20;;;;;;;;;;6165779;28;20057;-84
2022/09/26 16:09:55;;;;;;;2.17;1.33;;;;;;;;;;6184183;28;20070;-85
2022/09/26 16:12:58;;;;;;;2.10;1.10;;;;;;;;;;6149966;28;20055;-85
2022/09/26 16:16:06;;;;;;;2.13;1.20;;;;;;;;;;6149368;28;20137;-84
2022/09/26 16:19:41;;;;;;;2.97;1.70;;;;;;;;;;6152630;28;20058;-85
2022/09/26 16:22:49;;;;;;;5.97;2.83;;;;;;;;;;6171884;28;20051;-85
2022/09/26 16:25:53;;;;;;;3.88;2.22;;;;;;;;;;6171091;28;20058;-85
2022/09/26 16:28:56;;;;;;;4.68;2.40;;;;;;;;;;6159430;28;20051;-86
2022/09/26 16:31:58;;;;;;;5.30;2.60;;;;;;;;;;6147804;28;20050;-86
2022/09/26 16:35:22;;;;;;;2.53;1.52;;;;;;;;;;6128415;28;20058;-84
2022/09/26 16:38:33;;;;;;;4.45;1.90;;;;;;;;;;6160245;28;20050;-84
2022/09/26 16:41:41;;;;;;;5.30;3.10;;;;;;;;;;6133520;28;20050;-84
2022/09/26 16:45:04;;;;;;;14.98;9.38;;;;;;;;;;6159813;28;20047;-84
2022/09/26 16:48:39;;;;;;;12.38;6.97;;;;;;;;;;6180355;28;20452;-84
2022/09/26 16:52:09;;;;;;;3.10;1.77;;;;;;;;;;6181202;28;20058;-84
2022/09/26 16:55:11;;;;;;;7.60;4.28;;;;;;;;;;6171680;28;20050;-85
2022/09/26 16:58:12;;;;;;;6.95;4.95;;;;;;;;;;6163832;28;20053;-85
2022/09/26 17:04:36;;;;;;;10.23;5.47;;;;;;;;;;6175477;28;20057;-84
2022/09/26 17:07:38;;;;;;;21.38;9.05;;;;;;;;;;6144896;28;20211;-85
2022/09/26 17:10:40;;;;;;;7.53;4.20;;;;;;;;;;6143045;28;20580;-83
2022/09/26 17:13:42;;;;;;;4.35;2.60;;;;;;;;;;6160553;28;20046;-84
2022/09/26 17:16:46;;;;;;;3.97;3.00;;;;;;;;;;6173884;28;20414;-83
2022/09/26 17:19:50;;;;;;;2.40;2.20;;;;;;;;;;6181397;28;20042;-83
2022/09/26 17:23:00;;;;;;;7.13;2.60;;;;;;;;;;6178544;28;20706;-83
2022/09/26 17:26:24;;;;;;;5.95;3.45;;;;;;;;;;6185379;28;20057;-83
2022/09/26 17:29:29;;;;;;;6.90;3.83;;;;;;;;;;6173859;28;20046;-83
2022/09/26 17:32:45;;;;;;;4.78;2.60;;;;;;;;;;6146867;28;20474;-83
2022/09/26 17:35:47;;;;;;;2.78;2.08;;;;;;;;;;6167315;28;20054;-83
2022/09/26 17:38:49;;;;;;;3.38;2.40;;;;;;;;;;6179871;28;20085;-83
2022/09/26 17:41:53;;;;;;;4.57;2.80;;;;;;;;;;6164360;28;20054;-83
2022/09/26 17:44:55;;;;;;;3.00;2.67;;;;;;;;;;6150733;28;20043;-84
2022/09/26 17:48:03;;;;;;;3.30;1.77;;;;;;;;;;6166869;28;20054;-83
2022/09/26 17:51:07;;;;;;;2.90;2.10;;;;;;;;;;6182973;28;20085;-84
2022/09/26 17:54:15;;;;;;;3.92;1.60;;;;;;;;;;6192749;28;20129;-83
2022/09/26 17:57:23;;;;;;;3.72;1.98;;;;;;;;;;6172338;28;20077;-84
2022/09/26 18:00:30;;;;;;;3.00;2.70;;;;;;;;;;6171150;28;20049;-84
2022/09/26 18:03:35;;;;;;;3.30;2.55;;;;;;;;;;6169467;28;20050;-84
2022/09/26 18:06:37;;;;;;;3.85;2.05;;;;;;;;;;6172880;28;20046;-83
2022/09/26 18:09:39;;;;;;;4.10;2.30;;;;;;;;;;6169798;28;20058;-83
2022/09/26 18:12:44;;;;;;;2.25;1.95;;;;;;;;;;6171702;28;20505;-84
2022/09/26 18:15:46;;;;;;;2.92;1.50;;;;;;;;;;6170112;28;20050;-85
2022/09/26 18:18:48;;;;;;;3.42;1.38;;;;;;;;;;6155682;28;20101;-85
2022/09/26 18:21:54;;;;;;;9.00;4.73;;;;;;;;;;6164609;28;20046;-85
2022/09/26 18:25:05;;;;;;;3.58;1.60;;;;;;;;;;6163902;28;20050;-85
2022/09/26 18:28:12;;;;;;;1.67;1.30;;;;;;;;;;6162262;28;20532;-86
2022/09/26 18:31:14;;;;;;;2.45;2.10;;;;;;;;;;6150676;28;20485;-85
2022/09/26 18:34:18;;;;;;;2.70;1.33;;;;;;;;;;6152285;28;20064;-85
2022/09/26 18:37:20;;;;;;;2.90;1.70;;;;;;;;;;6183927;28;21237;-85
2022/09/26 18:40:24;;;;;;;1.95;1.52;;;;;;;;;;6155262;28;20108;-84
2022/09/26 18:43:32;;;;;;;3.40;1.73;;;;;;;;;;6151206;28;20089;-84
2022/09/26 18:46:43;;;;;;;2.20;1.60;;;;;;;;;;6163555;28;20061;-85
2022/09/26 18:49:45;;;;;;;1.75;1.50;;;;;;;;;;6153393;28;20057;-84
2022/09/26 18:52:48;;;;;;;2.57;1.60;;;;;;;;;;6184974;28;20198;-83
2022/09/26 18:59:10;;;;;;;5.25;1.90;;;;;;;;;;6166726;28;20133;-84
2022/09/26 19:02:19;;;;;;;6.32;2.95;;;;;;;;;;6164615;28;20039;-84
2022/09/26 19:05:21;;;;;;;8.27;3.47;;;;;;;;;;6169227;28;20053;-83
2022/09/26 19:08:38;;;;;;;2.80;1.95;;;;;;;;;;6170760;28;20064;-85
2022/09/26 19:11:40;;;;;;;2.80;1.67;;;;;;;;;;6181822;28;20057;-83
2022/09/26 19:14:43;;;;;;;3.63;1.88;;;;;;;;;;6173463;28;20465;-82
2022/09/26 19:17:44;;;;;;;2.93;2.60;;;;;;;;;;6164457;28;20058;-82
2022/09/26 19:20:46;;;;;;;5.53;2.80;;;;;;;;;;6149985;28;20048;-82